sensor_id;sensor_type;location;lat;lon;timestamp;pressure;altitude;pressure_sealevel;temperature;humidity
59063;BME280;44851;45.648;9.004;2023-04-27T00:01:15;98921.31;;;13.12;42.64
59063;BME280;44851;45.648;9.004;2023-04-27T00:03:41;98925.88;;;13.10;43.04
59063;BME280;44851;45.648;9.004;2023-04-27T00:06:07;98928.22;;;13.13;43.62
59063;BME280;44851;45.648;9.004;2023-04-27T00:08:34;98919.69;;;13.11;43.24
59063;BME280;44851;45.648;9.004;2023-04-27T00:10:59;98921.31;;;13.12;43.27
59063;BME280;44851;45.648;9.004;2023-04-27T00:13:25;98916.66;;;12.98;43.34
59063;BME280;44851;45.648;9.004;2023-04-27T00:15:51;98923.19;;;12.93;43.57
59063;BME280;44851;45.648;9.004;2023-04-27T00:18:17;98920.09;;;12.98;44.22
59063;BME280;44851;45.648;9.004;2023-04-27T00:20:42;98919.56;;;12.94;43.63
59063;BME280;44851;45.648;9.004;2023-04-27T00:23:09;98920.53;;;12.85;43.81
59063;BME280;44851;45.648;9.004;2023-04-27T00:25:35;98914.78;;;12.82;43.97
59063;BME280;44851;45.648;9.004;2023-04-27T00:28:00;98916.22;;;12.76;43.69
59063;BME280;44851;45.648;9.004;2023-04-27T00:30:26;98921.09;;;12.71;44.22
59063;BME280;44851;45.648;9.004;2023-04-27T00:32:51;98917.88;;;12.77;44.68
59063;BME280;44851;45.648;9.004;2023-04-27T00:35:17;98922.53;;;12.91;45.11
59063;BME280;44851;45.648;9.004;2023-04-27T00:37:42;98923.44;;;12.82;44.62
59063;BME280;44851;45.648;9.004;2023-04-27T00:40:08;98918.06;;;12.84;44.87
59063;BME280;44851;45.648;9.004;2023-04-27T00:42:34;98916.59;;;12.81;44.23
59063;BME280;44851;45.648;9.004;2023-04-27T00:45:00;98917.22;;;12.75;44.15
59063;BME280;44851;45.648;9.004;2023-04-27T00:47:26;98906.06;;;12.73;44.50
59063;BME280;44851;45.648;9.004;2023-04-27T00:49:52;98907.28;;;12.87;44.90
59063;BME280;44851;45.648;9.004;2023-04-27T00:52:18;98906.13;;;12.81;44.14
59063;BME280;44851;45.648;9.004;2023-04-27T00:54:43;98904.06;;;12.67;43.93
59063;BME280;44851;45.648;9.004;2023-04-27T00:57:09;98910.75;;;12.61;44.04
59063;BME280;44851;45.648;9.004;2023-04-27T00:59:34;98904.34;;;12.56;44.74
59063;BME280;44851;45.648;9.004;2023-04-27T01:02:00;98909.91;;;12.53;45.07
59063;BME280;44851;45.648;9.004;2023-04-27T01:04:26;98908.19;;;12.43;45.26
59063;BME280;44851;45.648;9.004;2023-04-27T01:06:53;98907.53;;;12.41;45.41
59063;BME280;44851;45.648;9.004;2023-04-27T01:09:18;98903.22;;;12.32;45.35
59063;BME280;44851;45.648;9.004;2023-04-27T01:11:45;98903.31;;;12.49;46.46
59063;BME280;44851;45.648;9.004;2023-04-27T01:14:11;98901.88;;;12.54;46.34
59063;BME280;44851;45.648;9.004;2023-04-27T01:16:36;98898.25;;;12.47;46.65
59063;BME280;44851;45.648;9.004;2023-04-27T01:19:02;98905.59;;;12.43;46.32
59063;BME280;44851;45.648;9.004;2023-04-27T01:21:28;98903.22;;;12.32;46.21
59063;BME280;44851;45.648;9.004;2023-04-27T01:23:54;98903.72;;;12.36;46.37
59063;BME280;44851;45.648;9.004;2023-04-27T01:26:19;98905.16;;;12.30;45.72
59063;BME280;44851;45.648;9.004;2023-04-27T01:28:45;98905.66;;;12.34;47.56
59063;BME280;44851;45.648;9.004;2023-04-27T01:31:11;98917.84;;;12.25;47.30
59063;BME280;44851;45.648;9.004;2023-04-27T01:33:37;98920.25;;;12.18;47.46
59063;BME280;44851;45.648;9.004;2023-04-27T01:36:03;98915.13;;;12.09;48.08
59063;BME280;44851;45.648;9.004;2023-04-27T01:38:30;98926.84;;;12.05;48.03
59063;BME280;44851;45.648;9.004;2023-04-27T01:40:56;98929.16;;;12.08;48.76
59063;BME280;44851;45.648;9.004;2023-04-27T01:43:26;98928.28;;;11.99;48.83
59063;BME280;44851;45.648;9.004;2023-04-27T01:45:52;98928.94;;;12.01;48.71
59063;BME280;44851;45.648;9.004;2023-04-27T01:48:18;98926.09;;;11.95;49.23
59063;BME280;44851;45.648;9.004;2023-04-27T01:50:43;98931.91;;;11.88;49.45
59063;BME280;44851;45.648;9.004;2023-04-27T01:53:08;98932.84;;;11.87;49.73
59063;BME280;44851;45.648;9.004;2023-04-27T01:55:34;98934.44;;;11.80;49.48
59063;BME280;44851;45.648;9.004;2023-04-27T01:57:59;98930.78;;;11.73;49.73
59063;BME280;44851;45.648;9.004;2023-04-27T02:00:25;98935.56;;;11.78;49.56
59063;BME280;44851;45.648;9.004;2023-04-27T02:02:50;98932.56;;;11.73;49.33
59063;BME280;44851;45.648;9.004;2023-04-27T02:05:18;98938.91;;;11.70;49.54
59063;BME280;44851;45.648;9.004;2023-04-27T02:07:43;98934.56;;;11.61;49.77
59063;BME280;44851;45.648;9.004;2023-04-27T02:10:09;98941.06;;;11.57;49.91
59063;BME280;44851;45.648;9.004;2023-04-27T02:12:35;98939.50;;;11.64;50.19
59063;BME280;44851;45.648;9.004;2023-04-27T02:15:00;98940.63;;;11.61;49.40
59063;BME280;44851;45.648;9.004;2023-04-27T02:17:27;98938.56;;;11.55;49.15
59063;BME280;44851;45.648;9.004;2023-04-27T02:19:53;98934.72;;;11.59;49.78
59063;BME280;44851;45.648;9.004;2023-04-27T02:22:19;98950.47;;;11.68;49.73
59063;BME280;44851;45.648;9.004;2023-04-27T02:24:45;98940.09;;;11.58;49.12
59063;BME280;44851;45.648;9.004;2023-04-27T02:27:10;98947.22;;;11.56;48.82
59063;BME280;44851;45.648;9.004;2023-04-27T02:29:36;98949.44;;;11.51;48.96
59063;BME280;44851;45.648;9.004;2023-04-27T02:32:04;98942.63;;;11.68;49.10
59063;BME280;44851;45.648;9.004;2023-04-27T02:34:30;98953.84;;;11.50;49.28
59063;BME280;44851;45.648;9.004;2023-04-27T02:36:55;98957.22;;;11.43;49.77
59063;BME280;44851;45.648;9.004;2023-04-27T02:39:21;98960.63;;;11.43;49.58
59063;BME280;44851;45.648;9.004;2023-04-27T02:41:46;98962.16;;;11.46;49.72
59063;BME280;44851;45.648;9.004;2023-04-27T02:44:12;98959.72;;;11.34;50.37
59063;BME280;44851;45.648;9.004;2023-04-27T02:46:37;98970.88;;;11.27;50.62
59063;BME280;44851;45.648;9.004;2023-04-27T02:49:03;98969.66;;;11.21;50.60
59063;BME280;44851;45.648;9.004;2023-04-27T02:51:28;98970.44;;;11.31;50.91
59063;BME280;44851;45.648;9.004;2023-04-27T02:53:53;98970.50;;;11.22;50.44
59063;BME280;44851;45.648;9.004;2023-04-27T02:56:19;98969.66;;;11.21;51.44
59063;BME280;44851;45.648;9.004;2023-04-27T02:58:45;98965.41;;;11.20;50.82
59063;BME280;44851;45.648;9.004;2023-04-27T03:01:13;98964.44;;;11.21;51.03
59063;BME280;44851;45.648;9.004;2023-04-27T03:03:38;98962.94;;;11.19;51.27
59063;BME280;44851;45.648;9.004;2023-04-27T03:06:04;98960.69;;;11.33;51.94
59063;BME280;44851;45.648;9.004;2023-04-27T03:08:30;98965.50;;;11.28;50.79
59063;BME280;44851;45.648;9.004;2023-04-27T03:10:56;98962.41;;;11.15;51.44
59063;BME280;44851;45.648;9.004;2023-04-27T03:13:21;98966.94;;;11.13;51.67
59063;BME280;44851;45.648;9.004;2023-04-27T03:15:46;98967.53;;;11.07;51.76
59063;BME280;44851;45.648;9.004;2023-04-27T03:18:12;98968.72;;;11.12;52.22
59063;BME280;44851;45.648;9.004;2023-04-27T03:20:37;98968.75;;;11.03;51.24
59063;BME280;44851;45.648;9.004;2023-04-27T03:23:03;98971.69;;;11.00;51.31
59063;BME280;44851;45.648;9.004;2023-04-27T03:25:28;98972.50;;;11.00;51.53
59063;BME280;44851;45.648;9.004;2023-04-27T03:27:54;98960.41;;;11.09;51.86
59063;BME280;44851;45.648;9.004;2023-04-27T03:30:20;98958.22;;;11.04;51.37
59063;BME280;44851;45.648;9.004;2023-04-27T03:32:45;98964.81;;;10.99;51.11
59063;BME280;44851;45.648;9.004;2023-04-27T03:35:10;98966.72;;;10.97;51.82
59063;BME280;44851;45.648;9.004;2023-04-27T03:37:36;98968.75;;;11.03;51.62
59063;BME280;44851;45.648;9.004;2023-04-27T03:40:01;98967.94;;;11.02;51.52
59063;BME280;44851;45.648;9.004;2023-04-27T03:42:31;98968.41;;;10.98;51.87
59063;BME280;44851;45.648;9.004;2023-04-27T03:44:56;98973.09;;;10.84;51.57
59063;BME280;44851;45.648;9.004;2023-04-27T03:47:22;98983.25;;;10.88;51.77
59063;BME280;44851;45.648;9.004;2023-04-27T03:49:47;98979.44;;;10.82;52.02
59063;BME280;44851;45.648;9.004;2023-04-27T03:52:13;98975.03;;;10.82;52.54
59063;BME280;44851;45.648;9.004;2023-04-27T03:54:38;98976.25;;;10.69;52.08
59063;BME280;44851;45.648;9.004;2023-04-27T03:57:03;98977.22;;;10.68;52.16
59063;BME280;44851;45.648;9.004;2023-04-27T03:59:29;98971.75;;;10.61;52.06
59063;BME280;44851;45.648;9.004;2023-04-27T04:01:55;98988.75;;;10.65;52.22
59063;BME280;44851;45.648;9.004;2023-04-27T04:04:22;98991.25;;;10.57;52.39
59063;BME280;44851;45.648;9.004;2023-04-27T04:06:47;98990.28;;;10.58;52.36
59063;BME280;44851;45.648;9.004;2023-04-27T04:09:12;98998.50;;;10.63;52.89
59063;BME280;44851;45.648;9.004;2023-04-27T04:11:38;98998.38;;;10.55;52.50
59063;BME280;44851;45.648;9.004;2023-04-27T04:14:03;99004.69;;;10.52;52.24
59063;BME280;44851;45.648;9.004;2023-04-27T04:16:29;99011.41;;;10.55;52.24
59063;BME280;44851;45.648;9.004;2023-04-27T04:18:54;99009.34;;;10.58;52.37
59063;BME280;44851;45.648;9.004;2023-04-27T04:21:20;99013.63;;;10.50;52.48
59063;BME280;44851;45.648;9.004;2023-04-27T04:23:45;99014.03;;;10.55;52.31
59063;BME280;44851;45.648;9.004;2023-04-27T04:26:11;99008.94;;;10.44;52.67
59063;BME280;44851;45.648;9.004;2023-04-27T04:28:37;99021.53;;;10.48;52.53
59063;BME280;44851;45.648;9.004;2023-04-27T04:31:03;99026.63;;;10.50;52.29
59063;BME280;44851;45.648;9.004;2023-04-27T04:33:29;99028.53;;;10.48;52.29
59063;BME280;44851;45.648;9.004;2023-04-27T04:35:55;99027.44;;;10.60;52.12
59063;BME280;44851;45.648;9.004;2023-04-27T04:38:21;99029.38;;;10.48;52.36
59063;BME280;44851;45.648;9.004;2023-04-27T04:40:47;99038.16;;;10.57;52.66
59063;BME280;44851;45.648;9.004;2023-04-27T04:43:14;99036.25;;;10.40;52.76
59063;BME280;44851;45.648;9.004;2023-04-27T04:45:39;99036.22;;;10.59;52.65
59063;BME280;44851;45.648;9.004;2023-04-27T04:48:04;99040.59;;;10.49;52.97
59063;BME280;44851;45.648;9.004;2023-04-27T04:50:30;99041.97;;;10.33;53.46
59063;BME280;44851;45.648;9.004;2023-04-27T04:52:55;99049.53;;;10.37;53.00
59063;BME280;44851;45.648;9.004;2023-04-27T04:55:21;99045.41;;;10.44;53.04
59063;BME280;44851;45.648;9.004;2023-04-27T04:57:46;99045.56;;;10.52;53.18
59063;BME280;44851;45.648;9.004;2023-04-27T05:00:12;99054.34;;;10.51;53.25
59063;BME280;44851;45.648;9.004;2023-04-27T05:02:41;99052.81;;;10.58;53.53
59063;BME280;44851;45.648;9.004;2023-04-27T05:05:07;99066.16;;;10.55;53.40
59063;BME280;44851;45.648;9.004;2023-04-27T05:07:33;99063.38;;;10.47;51.98
59063;BME280;44851;45.648;9.004;2023-04-27T05:09:59;99066.97;;;10.46;52.43
59063;BME280;44851;45.648;9.004;2023-04-27T05:12:25;99075.03;;;10.52;52.67
59063;BME280;44851;45.648;9.004;2023-04-27T05:14:51;99078.22;;;10.56;52.57
59063;BME280;44851;45.648;9.004;2023-04-27T05:17:16;99080.94;;;10.54;52.63
59063;BME280;44851;45.648;9.004;2023-04-27T05:19:42;99085.63;;;10.60;54.15
59063;BME280;44851;45.648;9.004;2023-04-27T05:22:07;99083.72;;;10.72;53.49
59063;BME280;44851;45.648;9.004;2023-04-27T05:24:33;99087.28;;;10.71;52.73
59063;BME280;44851;45.648;9.004;2023-04-27T05:26:58;99084.81;;;10.79;53.58
59063;BME280;44851;45.648;9.004;2023-04-27T05:29:24;99091.66;;;10.80;53.23
59063;BME280;44851;45.648;9.004;2023-04-27T05:31:49;99100.56;;;10.68;52.75
59063;BME280;44851;45.648;9.004;2023-04-27T05:34:15;99105.94;;;10.76;52.95
59063;BME280;44851;45.648;9.004;2023-04-27T05:36:40;99098.34;;;10.64;51.99
59063;BME280;44851;45.648;9.004;2023-04-27T05:39:06;99100.59;;;10.88;52.78
59063;BME280;44851;45.648;9.004;2023-04-27T05:41:32;99100.28;;;10.91;52.45
59063;BME280;44851;45.648;9.004;2023-04-27T05:43:57;99102.22;;;10.89;52.53
59063;BME280;44851;45.648;9.004;2023-04-27T05:46:23;99109.91;;;11.00;52.33
59063;BME280;44851;45.648;9.004;2023-04-27T05:48:48;99103.97;;;11.07;52.08
59063;BME280;44851;45.648;9.004;2023-04-27T05:51:14;99113.03;;;11.13;52.08
59063;BME280;44851;45.648;9.004;2023-04-27T05:53:39;99117.00;;;11.07;52.40
59063;BME280;44851;45.648;9.004;2023-04-27T05:56:05;99119.34;;;11.20;52.20
59063;BME280;44851;45.648;9.004;2023-04-27T05:58:32;99115.34;;;11.26;52.59
59063;BME280;44851;45.648;9.004;2023-04-27T06:00:58;99117.66;;;11.38;51.41
59063;BME280;44851;45.648;9.004;2023-04-27T06:03:24;99117.06;;;11.45;51.06
59063;BME280;44851;45.648;9.004;2023-04-27T06:05:56;99115.66;;;11.60;51.13
59063;BME280;44851;45.648;9.004;2023-04-27T06:08:22;99113.16;;;11.68;51.21
59063;BME280;44851;45.648;9.004;2023-04-27T06:10:49;99128.66;;;11.79;52.07
59063;BME280;44851;45.648;9.004;2023-04-27T06:13:15;99127.63;;;12.00;51.30
59063;BME280;44851;45.648;9.004;2023-04-27T06:15:41;99131.69;;;12.12;49.57
59063;BME280;44851;45.648;9.004;2023-04-27T06:18:06;99138.22;;;12.43;47.35
59063;BME280;44851;45.648;9.004;2023-04-27T06:20:32;99132.94;;;12.71;48.29
59063;BME280;44851;45.648;9.004;2023-04-27T06:22:57;99130.09;;;12.82;48.07
59063;BME280;44851;45.648;9.004;2023-04-27T06:25:24;99139.19;;;13.14;48.17
59063;BME280;44851;45.648;9.004;2023-04-27T06:27:51;99133.47;;;13.36;47.25
59063;BME280;44851;45.648;9.004;2023-04-27T06:30:16;99140.47;;;13.54;46.08
59063;BME280;44851;45.648;9.004;2023-04-27T06:32:42;99147.19;;;13.90;45.46
59063;BME280;44851;45.648;9.004;2023-04-27T06:35:08;99151.53;;;14.08;44.62
59063;BME280;44851;45.648;9.004;2023-04-27T06:37:33;99145.38;;;14.25;43.81
59063;BME280;44851;45.648;9.004;2023-04-27T06:39:59;99145.81;;;14.55;45.66
59063;BME280;44851;45.648;9.004;2023-04-27T06:42:24;99145.31;;;14.75;45.00
59063;BME280;44851;45.648;9.004;2023-04-27T06:44:52;99145.50;;;14.90;42.89
59063;BME280;44851;45.648;9.004;2023-04-27T06:47:18;99152.38;;;14.91;43.67
59063;BME280;44851;45.648;9.004;2023-04-27T06:49:45;99155.34;;;15.21;42.64
59063;BME280;44851;45.648;9.004;2023-04-27T06:52:10;99154.38;;;15.30;41.60
59063;BME280;44851;45.648;9.004;2023-04-27T06:54:36;99159.97;;;15.35;40.60
59063;BME280;44851;45.648;9.004;2023-04-27T06:57:01;99164.19;;;15.44;41.27
59063;BME280;44851;45.648;9.004;2023-04-27T06:59:27;99161.84;;;15.74;40.18
59063;BME280;44851;45.648;9.004;2023-04-27T07:01:52;99161.03;;;15.73;40.16
59063;BME280;44851;45.648;9.004;2023-04-27T07:04:18;99166.41;;;15.88;40.18
59063;BME280;44851;45.648;9.004;2023-04-27T07:06:43;99169.34;;;15.93;38.32
59063;BME280;44851;45.648;9.004;2023-04-27T07:09:09;99174.63;;;15.93;38.83
59063;BME280;44851;45.648;9.004;2023-04-27T07:11:34;99175.84;;;16.14;38.85
59063;BME280;44851;45.648;9.004;2023-04-27T07:14:00;99173.47;;;16.35;40.18
59063;BME280;44851;45.648;9.004;2023-04-27T07:16:25;99172.44;;;15.97;37.77
59063;BME280;44851;45.648;9.004;2023-04-27T07:18:50;99171.84;;;16.34;38.97
59063;BME280;44851;45.648;9.004;2023-04-27T07:21:16;99172.72;;;16.57;39.33
59063;BME280;44851;45.648;9.004;2023-04-27T07:23:41;99175.28;;;16.66;38.70
59063;BME280;44851;45.648;9.004;2023-04-27T07:26:07;99176.19;;;16.73;36.50
59063;BME280;44851;45.648;9.004;2023-04-27T07:28:33;99174.13;;;16.68;36.93
59063;BME280;44851;45.648;9.004;2023-04-27T07:31:05;99174.59;;;16.95;36.72
59063;BME280;44851;45.648;9.004;2023-04-27T07:33:31;99176.84;;;16.98;37.61
59063;BME280;44851;45.648;9.004;2023-04-27T07:35:57;99170.06;;;17.03;35.73
59063;BME280;44851;45.648;9.004;2023-04-27T07:38:23;99168.72;;;17.07;37.19
59063;BME280;44851;45.648;9.004;2023-04-27T07:40:49;99177.88;;;17.20;37.07
59063;BME280;44851;45.648;9.004;2023-04-27T07:43:15;99173.88;;;17.24;36.32
59063;BME280;44851;45.648;9.004;2023-04-27T07:45:42;99172.66;;;17.49;36.66
59063;BME280;44851;45.648;9.004;2023-04-27T07:48:08;99166.50;;;17.42;36.26
59063;BME280;44851;45.648;9.004;2023-04-27T07:50:34;99170.91;;;17.42;35.84
59063;BME280;44851;45.648;9.004;2023-04-27T07:53:00;99170.50;;;17.53;36.64
59063;BME280;44851;45.648;9.004;2023-04-27T07:55:25;99176.88;;;17.58;36.48
59063;BME280;44851;45.648;9.004;2023-04-27T07:57:52;99168.59;;;17.61;33.97
59063;BME280;44851;45.648;9.004;2023-04-27T08:00:18;99170.41;;;17.76;35.13
59063;BME280;44851;45.648;9.004;2023-04-27T08:02:44;99172.06;;;17.77;35.36
59063;BME280;44851;45.648;9.004;2023-04-27T08:05:10;99178.22;;;17.84;36.13
59063;BME280;44851;45.648;9.004;2023-04-27T08:07:35;99169.44;;;18.06;35.33
59063;BME280;44851;45.648;9.004;2023-04-27T08:10:01;99171.22;;;18.21;34.81
59063;BME280;44851;45.648;9.004;2023-04-27T08:12:26;99181.28;;;18.47;36.88
59063;BME280;44851;45.648;9.004;2023-04-27T08:14:52;99178.53;;;18.19;35.98
59063;BME280;44851;45.648;9.004;2023-04-27T08:17:18;99173.78;;;18.29;33.22
59063;BME280;44851;45.648;9.004;2023-04-27T08:19:43;99170.50;;;18.27;35.16
59063;BME280;44851;45.648;9.004;2023-04-27T08:22:09;99174.09;;;18.55;35.78
59063;BME280;44851;45.648;9.004;2023-04-27T08:24:35;99178.78;;;18.38;34.77
59063;BME280;44851;45.648;9.004;2023-04-27T08:27:00;99171.19;;;18.50;37.79
59063;BME280;44851;45.648;9.004;2023-04-27T08:29:27;99171.75;;;18.82;35.56
59063;BME280;44851;45.648;9.004;2023-04-27T08:31:53;99172.75;;;18.81;35.62
59063;BME280;44851;45.648;9.004;2023-04-27T08:34:19;99170.34;;;18.86;34.13
59063;BME280;44851;45.648;9.004;2023-04-27T08:36:44;99175.88;;;19.12;34.05
59063;BME280;44851;45.648;9.004;2023-04-27T08:39:09;99179.66;;;19.25;33.90
59063;BME280;44851;45.648;9.004;2023-04-27T08:41:35;99185.97;;;19.02;33.41
59063;BME280;44851;45.648;9.004;2023-04-27T08:44:01;99171.16;;;19.29;33.93
59063;BME280;44851;45.648;9.004;2023-04-27T08:46:26;99182.81;;;19.13;33.81
59063;BME280;44851;45.648;9.004;2023-04-27T08:48:52;99178.47;;;19.34;34.38
59063;BME280;44851;45.648;9.004;2023-04-27T08:51:19;99174.09;;;19.41;35.03
59063;BME280;44851;45.648;9.004;2023-04-27T08:53:50;99174.31;;;19.46;34.59
59063;BME280;44851;45.648;9.004;2023-04-27T08:56:17;99175.03;;;19.33;33.56
59063;BME280;44851;45.648;9.004;2023-04-27T08:58:42;99168.19;;;19.17;33.68
59063;BME280;44851;45.648;9.004;2023-04-27T09:01:08;99167.50;;;19.30;33.26
59063;BME280;44851;45.648;9.004;2023-04-27T09:03:34;99167.91;;;19.34;34.69
59063;BME280;44851;45.648;9.004;2023-04-27T09:06:04;99167.75;;;19.63;35.52
59063;BME280;44851;45.648;9.004;2023-04-27T09:08:47;99158.56;;;19.31;32.12
59063;BME280;44851;45.648;9.004;2023-04-27T09:11:15;99169.66;;;19.48;33.83
59063;BME280;44851;45.648;9.004;2023-04-27T09:13:42;99171.56;;;19.33;31.82
59063;BME280;44851;45.648;9.004;2023-04-27T09:16:12;99167.03;;;18.99;32.87
59063;BME280;44851;45.648;9.004;2023-04-27T09:18:42;99163.16;;;19.23;34.79
59063;BME280;44851;45.648;9.004;2023-04-27T09:21:08;99166.97;;;19.41;34.42
59063;BME280;44851;45.648;9.004;2023-04-27T09:23:38;99161.47;;;19.43;33.72
59063;BME280;44851;45.648;9.004;2023-04-27T09:26:06;99167.13;;;19.61;34.00
59063;BME280;44851;45.648;9.004;2023-04-27T09:28:33;99167.69;;;19.85;36.97
59063;BME280;44851;45.648;9.004;2023-04-27T09:31:01;99172.34;;;19.83;35.05
59063;BME280;44851;45.648;9.004;2023-04-27T09:33:29;99172.03;;;19.99;33.31
59063;BME280;44851;45.648;9.004;2023-04-27T09:35:56;99159.75;;;19.85;31.75
59063;BME280;44851;45.648;9.004;2023-04-27T09:38:22;99169.47;;;19.78;31.49
59063;BME280;44851;45.648;9.004;2023-04-27T09:40:51;99176.44;;;19.85;32.94
59063;BME280;44851;45.648;9.004;2023-04-27T09:43:17;99183.16;;;19.88;32.67
59063;BME280;44851;45.648;9.004;2023-04-27T09:45:43;99168.47;;;20.20;33.72
59063;BME280;44851;45.648;9.004;2023-04-27T09:48:09;99167.44;;;19.80;33.50
59063;BME280;44851;45.648;9.004;2023-04-27T09:50:36;99164.56;;;19.75;32.39
59063;BME280;44851;45.648;9.004;2023-04-27T09:53:07;99152.81;;;19.84;33.44
59063;BME280;44851;45.648;9.004;2023-04-27T09:55:46;99161.00;;;19.89;31.56
59063;BME280;44851;45.648;9.004;2023-04-27T10:09:09;99141.34;;;20.11;31.71
59063;BME280;44851;45.648;9.004;2023-04-27T10:11:38;99144.75;;;19.98;32.11
59063;BME280;44851;45.648;9.004;2023-04-27T10:14:17;99145.56;;;19.99;32.10
59063;BME280;44851;45.648;9.004;2023-04-27T10:16:54;99146.94;;;20.36;35.13
59063;BME280;44851;45.648;9.004;2023-04-27T10:19:21;99136.41;;;20.43;32.85
59063;BME280;44851;45.648;9.004;2023-04-27T10:21:52;99148.44;;;20.52;33.16
59063;BME280;44851;45.648;9.004;2023-04-27T10:24:18;99142.81;;;20.20;32.21
59063;BME280;44851;45.648;9.004;2023-04-27T10:26:47;99136.28;;;20.16;31.28
59063;BME280;44851;45.648;9.004;2023-04-27T10:29:12;99141.00;;;20.28;34.58
59063;BME280;44851;45.648;9.004;2023-04-27T10:31:45;99139.59;;;20.32;32.94
59063;BME280;44851;45.648;9.004;2023-04-27T10:34:15;99138.25;;;20.49;32.56
59063;BME280;44851;45.648;9.004;2023-04-27T10:36:41;99135.94;;;20.33;31.27
59063;BME280;44851;45.648;9.004;2023-04-27T10:39:34;99131.78;;;20.17;33.87
59063;BME280;44851;45.648;9.004;2023-04-27T10:42:00;99141.25;;;20.39;33.87
59063;BME280;44851;45.648;9.004;2023-04-27T10:44:27;99136.44;;;20.63;32.22
59063;BME280;44851;45.648;9.004;2023-04-27T10:46:54;99136.44;;;20.83;31.49
59063;BME280;44851;45.648;9.004;2023-04-27T10:49:21;99140.97;;;20.95;32.98
59063;BME280;44851;45.648;9.004;2023-04-27T10:51:48;99141.78;;;20.89;30.19
59063;BME280;44851;45.648;9.004;2023-04-27T10:54:14;99134.44;;;20.78;31.55
59063;BME280;44851;45.648;9.004;2023-04-27T10:56:40;99126.69;;;21.03;32.37
59063;BME280;44851;45.648;9.004;2023-04-27T10:59:05;99129.97;;;21.25;31.63
59063;BME280;44851;45.648;9.004;2023-04-27T11:01:32;99120.19;;;20.99;30.33
59063;BME280;44851;45.648;9.004;2023-04-27T11:03:58;99115.72;;;21.13;33.45
59063;BME280;44851;45.648;9.004;2023-04-27T11:06:24;99121.81;;;21.26;31.98
59063;BME280;44851;45.648;9.004;2023-04-27T11:08:50;99114.88;;;21.39;31.90
59063;BME280;44851;45.648;9.004;2023-04-27T11:11:16;99117.34;;;21.27;31.20
59063;BME280;44851;45.648;9.004;2023-04-27T11:13:43;99118.53;;;21.38;32.55
59063;BME280;44851;45.648;9.004;2023-04-27T11:16:09;99111.16;;;21.60;32.08
59063;BME280;44851;45.648;9.004;2023-04-27T11:18:38;99113.03;;;21.52;30.99
59063;BME280;44851;45.648;9.004;2023-04-27T11:21:14;99110.78;;;21.29;34.53
59063;BME280;44851;45.648;9.004;2023-04-27T11:23:41;99106.34;;;21.95;36.16
59063;BME280;44851;45.648;9.004;2023-04-27T11:28:35;99101.38;;;22.50;31.62
59063;BME280;44851;45.648;9.004;2023-04-27T11:31:01;99093.75;;;22.92;33.03
59063;BME280;44851;45.648;9.004;2023-04-27T11:33:28;99096.06;;;23.06;34.48
59063;BME280;44851;45.648;9.004;2023-04-27T11:35:54;99104.09;;;22.43;28.71
59063;BME280;44851;45.648;9.004;2023-04-27T11:38:20;99092.75;;;22.61;28.85
59063;BME280;44851;45.648;9.004;2023-04-27T11:40:46;99084.00;;;22.86;30.72
59063;BME280;44851;45.648;9.004;2023-04-27T11:43:24;99088.19;;;22.68;30.20
59063;BME280;44851;45.648;9.004;2023-04-27T11:45:50;99088.44;;;22.28;30.11
59063;BME280;44851;45.648;9.004;2023-04-27T11:48:15;99095.78;;;22.26;28.19
59063;BME280;44851;45.648;9.004;2023-04-27T11:50:45;99079.66;;;22.28;28.88
59063;BME280;44851;45.648;9.004;2023-04-27T11:53:12;99087.66;;;22.60;30.74
59063;BME280;44851;45.648;9.004;2023-04-27T11:55:37;99079.91;;;22.83;31.44
59063;BME280;44851;45.648;9.004;2023-04-27T11:58:06;99079.19;;;22.69;29.07
59063;BME280;44851;45.648;9.004;2023-04-27T12:00:32;99073.38;;;22.86;29.07
59063;BME280;44851;45.648;9.004;2023-04-27T12:02:57;99076.31;;;23.21;31.90
59063;BME280;44851;45.648;9.004;2023-04-27T12:05:23;99072.88;;;23.39;29.27
59063;BME280;44851;45.648;9.004;2023-04-27T12:07:48;99074.81;;;23.50;30.32
59063;BME280;44851;45.648;9.004;2023-04-27T12:10:14;99074.06;;;23.24;29.49
59063;BME280;44851;45.648;9.004;2023-04-27T12:12:39;99072.44;;;23.42;28.94
59063;BME280;44851;45.648;9.004;2023-04-27T12:15:06;99070.47;;;23.12;28.66
59063;BME280;44851;45.648;9.004;2023-04-27T12:17:32;99061.66;;;23.36;30.42
59063;BME280;44851;45.648;9.004;2023-04-27T12:19:58;99057.22;;;23.49;28.48
59063;BME280;44851;45.648;9.004;2023-04-27T12:22:23;99058.09;;;23.43;26.97
59063;BME280;44851;45.648;9.004;2023-04-27T12:24:49;99060.16;;;23.77;27.71
59063;BME280;44851;45.648;9.004;2023-04-27T12:27:15;99054.41;;;23.44;27.00
59063;BME280;44851;45.648;9.004;2023-04-27T12:29:43;99066.59;;;23.33;29.90
59063;BME280;44851;45.648;9.004;2023-04-27T12:32:08;99056.63;;;23.28;28.33
59063;BME280;44851;45.648;9.004;2023-04-27T12:34:34;99057.44;;;23.29;28.88
59063;BME280;44851;45.648;9.004;2023-04-27T12:36:59;99055.53;;;23.11;26.90
59063;BME280;44851;45.648;9.004;2023-04-27T12:39:25;99053.00;;;23.78;28.90
59063;BME280;44851;45.648;9.004;2023-04-27T12:41:52;99059.63;;;24.05;27.51
59063;BME280;44851;45.648;9.004;2023-04-27T12:44:19;99051.69;;;24.17;27.86
59063;BME280;44851;45.648;9.004;2023-04-27T12:46:45;99054.44;;;24.10;26.44
59063;BME280;44851;45.648;9.004;2023-04-27T12:49:12;99045.81;;;24.27;30.13
59063;BME280;44851;45.648;9.004;2023-04-27T12:51:37;99056.47;;;24.57;30.91
59063;BME280;44851;45.648;9.004;2023-04-27T12:54:03;99039.84;;;24.13;29.24
59063;BME280;44851;45.648;9.004;2023-04-27T12:56:29;99053.94;;;24.32;28.82
59063;BME280;44851;45.648;9.004;2023-04-27T12:58:55;99054.06;;;24.07;28.19
59063;BME280;44851;45.648;9.004;2023-04-27T13:01:21;99044.63;;;23.74;28.94
59063;BME280;44851;45.648;9.004;2023-04-27T13:03:58;99053.34;;;24.00;29.61
59063;BME280;44851;45.648;9.004;2023-04-27T13:06:24;99049.19;;;23.85;29.77
59063;BME280;44851;45.648;9.004;2023-04-27T13:08:49;99044.81;;;23.43;26.97